M I D A S
Marine Information and Data Acquisition System
Tripno 134 of the Zeeleeuw from 2001-06-05 10:00:00 to 2001-06-05 18:00:00
Back to CruiseResearch ActivitiesStationsMapUnderway DataData graphs

EquipmentUnitsComment
TimeDGPSUTC
LatitudeDGPSDM.mWGS84
LongitudeDGPSDM.mWGS84
TemperatureSBE03/SBE38deg celciusITS90
ConductivitySBE21S/mITS90
SalinitySBE21 Practical Salinity Units
ChlorophylAChelsea fluorimeterg/lCalibrated in Aceton
Missing or incorrect values are displayed as -999
Sea surface data collected by the RV Zeeleeuw from 2001-06-05 10:00:00 to 2001-06-05 18:00:00
                                                                                    Next 1000 lines
Time Latitude Longitude Temperature Conductivity Salinity ChlorophylA
2001-06-05 10:00:07 51°8.619 2°34.304 -999 -999 -999  
2001-06-05 10:00:13 51°8.63 2°34.326 -999 -999 -999  
2001-06-05 10:00:18 51°8.638 2°34.343 -999 -999 -999  
2001-06-05 10:00:23 51°8.646 2°34.36 -999 -999 -999  
2001-06-05 10:00:28 51°8.654 2°34.376 -999 -999 -999  
2001-06-05 10:00:33 51°8.661 2°34.391 -999 -999 -999  
2001-06-05 10:00:38 51°8.668 2°34.406 -999 -999 -999  
2001-06-05 10:00:43 51°8.674 2°34.42 -999 -999 -999  
2001-06-05 10:00:48 51°8.681 2°34.434 -999 -999 -999  
2001-06-05 10:00:53 51°8.686 2°34.447 -999 -999 -999  
2001-06-05 10:00:57 51°8.691 2°34.457 -999 -999 -999  
2001-06-05 10:01:03 51°8.697 2°34.473 -999 -999 -999  
2001-06-05 10:01:08 51°8.702 2°34.486 -999 -999 -999  
2001-06-05 10:01:13 51°8.706 2°34.498 -999 -999 -999  
2001-06-05 10:01:18 51°8.71 2°34.51 -999 -999 -999  
2001-06-05 10:01:23 51°8.714 2°34.521 -999 -999 -999  
2001-06-05 10:01:28 51°8.718 2°34.533 -999 -999 -999  
2001-06-05 10:01:33 51°8.721 2°34.544 -999 -999 -999  
2001-06-05 10:01:38 51°8.725 2°34.555 -999 -999 -999  
2001-06-05 10:01:43 51°8.727 2°34.566 -999 -999 -999  
2001-06-05 10:01:48 51°8.73 2°34.576 -999 -999 -999  
2001-06-05 10:01:53 51°8.733 2°34.586 -999 -999 -999  
2001-06-05 10:01:58 51°8.736 2°34.596 -999 -999 -999  
2001-06-05 10:02:03 51°8.738 2°34.606 -999 -999 -999  
2001-06-05 10:02:08 51°8.74 2°34.615 -999 -999 -999  
2001-06-05 10:02:13 51°8.743 2°34.624 -999 -999 -999  
2001-06-05 10:02:18 51°8.745 2°34.633 -999 -999 -999  
2001-06-05 10:02:23 51°8.747 2°34.642 -999 -999 -999  
2001-06-05 10:02:28 51°8.75 2°34.65 -999 -999 -999  
2001-06-05 10:02:33 51°8.752 2°34.658 -999 -999 -999  
2001-06-05 10:02:38 51°8.755 2°34.666 -999 -999 -999  
2001-06-05 10:02:43 51°8.757 2°34.674 -999 -999 -999  
2001-06-05 10:02:48 51°8.76 2°34.681 -999 -999 -999  
2001-06-05 10:02:53 51°8.762 2°34.689 -999 -999 -999  
2001-06-05 10:02:58 51°8.765 2°34.696 -999 -999 -999  
2001-06-05 10:03:03 51°8.767 2°34.702 -999 -999 -999  
2001-06-05 10:03:08 51°8.77 2°34.709 -999 -999 -999  
2001-06-05 10:03:13 51°8.772 2°34.716 -999 -999 -999  
2001-06-05 10:03:18 51°8.775 2°34.722 -999 -999 -999  
2001-06-05 10:03:23 51°8.777 2°34.729 -999 -999 -999  
2001-06-05 10:03:28 51°8.78 2°34.735 -999 -999 -999  
2001-06-05 10:03:33 51°8.782 2°34.741 -999 -999 -999  
2001-06-05 10:03:38 51°8.785 2°34.747 -999 -999 -999  
2001-06-05 10:03:43 51°8.787 2°34.753 -999 -999 -999  
2001-06-05 10:03:47 51°8.789 2°34.758 -999 -999 -999  
2001-06-05 10:03:53 51°8.792 2°34.765 -999 -999 -999  
2001-06-05 10:03:58 51°8.794 2°34.77 -999 -999 -999  
2001-06-05 10:04:03 51°8.797 2°34.776 -999 -999 -999  
2001-06-05 10:04:08 51°8.799 2°34.782 -999 -999 -999  
2001-06-05 10:04:13 51°8.802 2°34.787 -999 -999 -999  
2001-06-05 10:04:18 51°8.804 2°34.792 -999 -999 -999  
2001-06-05 10:04:23 51°8.806 2°34.798 -999 -999 -999  
2001-06-05 10:04:28 51°8.809 2°34.803 -999 -999 -999  
2001-06-05 10:04:33 51°8.811 2°34.808 -999 -999 -999  
2001-06-05 10:04:38 51°8.813 2°34.813 -999 -999 -999  
2001-06-05 10:04:43 51°8.815 2°34.819 -999 -999 -999  
2001-06-05 10:04:48 51°8.818 2°34.824 -999 -999 -999  
2001-06-05 10:04:53 51°8.82 2°34.829 -999 -999 -999  
2001-06-05 10:04:58 51°8.822 2°34.834 -999 -999 -999  
2001-06-05 10:05:03 51°8.825 2°34.839 -999 -999 -999  
2001-06-05 10:05:07 51°8.826 2°34.843 -999 -999 -999  
2001-06-05 10:05:13 51°8.829 2°34.849 -999 -999 -999  
2001-06-05 10:05:18 51°8.831 2°34.854 -999 -999 -999  
2001-06-05 10:05:23 51°8.833 2°34.859 -999 -999 -999  
2001-06-05 10:05:28 51°8.836 2°34.864 -999 -999 -999  
2001-06-05 10:05:33 51°8.838 2°34.868 -999 -999 -999  
2001-06-05 10:05:37 51°8.839 2°34.872 -999 -999 -999  
2001-06-05 10:05:43 51°8.841 2°34.878 -999 -999 -999  
2001-06-05 10:05:48 51°8.843 2°34.883 -999 -999 -999  
2001-06-05 10:05:53 51°8.845 2°34.888 -999 -999 -999  
2001-06-05 10:05:58 51°8.848 2°34.892 -999 -999 -999  
2001-06-05 10:06:03 51°8.849 2°34.897 -999 -999 -999  
2001-06-05 10:06:08 51°8.851 2°34.902 -999 -999 -999  
2001-06-05 10:06:13 51°8.854 2°34.906 -999 -999 -999  
2001-06-05 10:06:18 51°8.855 2°34.911 -999 -999 -999  
2001-06-05 10:06:23 51°8.857 2°34.915 -999 -999 -999  
2001-06-05 10:06:28 51°8.859 2°34.92 -999 -999 -999  
2001-06-05 10:06:33 51°8.861 2°34.925 -999 -999 -999  
2001-06-05 10:06:38 51°8.863 2°34.929 -999 -999 -999  
2001-06-05 10:06:43 51°8.865 2°34.933 -999 -999 -999  
2001-06-05 10:06:47 51°8.866 2°34.937 -999 -999 -999  
2001-06-05 10:06:53 51°8.868 2°34.942 -999 -999 -999  
2001-06-05 10:06:58 51°8.87 2°34.947 -999 -999 -999  
2001-06-05 10:07:03 51°8.872 2°34.951 -999 -999 -999  
2001-06-05 10:07:08 51°8.874 2°34.955 -999 -999 -999  
2001-06-05 10:07:13 51°8.876 2°34.96 -999 -999 -999  
2001-06-05 10:07:18 51°8.877 2°34.964 -999 -999 -999  
2001-06-05 10:07:23 51°8.879 2°34.968 -999 -999 -999  
2001-06-05 10:07:28 51°8.881 2°34.972 -999 -999 -999  
2001-06-05 10:07:33 51°8.883 2°34.977 -999 -999 -999  
2001-06-05 10:07:37 51°8.884 2°34.98 -999 -999 -999  
2001-06-05 10:07:43 51°8.887 2°34.985 -999 -999 -999  
2001-06-05 10:07:48 51°8.889 2°34.989 -999 -999 -999  
2001-06-05 10:07:53 51°8.891 2°34.994 -999 -999 -999  
2001-06-05 10:07:58 51°8.893 2°34.998 -999 -999 -999  
2001-06-05 10:08:03 51°8.895 2°35.002 -999 -999 -999  
2001-06-05 10:08:07 51°8.896 2°35.006 -999 -999 -999  
2001-06-05 10:08:13 51°8.899 2°35.011 -999 -999 -999  
2001-06-05 10:08:17 51°8.9 2°35.014 -999 -999 -999  
2001-06-05 10:08:23 51°8.903 2°35.019 -999 -999 -999  
2001-06-05 10:08:28 51°8.906 2°35.024 -999 -999 -999  
2001-06-05 10:08:33 51°8.908 2°35.028 -999 -999 -999  
2001-06-05 10:08:38 51°8.911 2°35.033 -999 -999 -999  
2001-06-05 10:08:43 51°8.915 2°35.037 -999 -999 -999  
2001-06-05 10:08:48 51°8.918 2°35.042 -999 -999 -999  
2001-06-05 10:08:53 51°8.922 2°35.045 -999 -999 -999  
2001-06-05 10:08:58 51°8.925 2°35.048 -999 -999 -999  
2001-06-05 10:09:03 51°8.929 2°35.051 -999 -999 -999  
2001-06-05 10:09:08 51°8.933 2°35.054 -999 -999 -999  
2001-06-05 10:09:13 51°8.937 2°35.056 -999 -999 -999  
2001-06-05 10:09:18 51°8.941 2°35.058 -999 -999 -999  
2001-06-05 10:09:23 51°8.945 2°35.059 -999 -999 -999  
2001-06-05 10:09:28 51°8.949 2°35.06 -999 -999 -999  
2001-06-05 10:09:33 51°8.953 2°35.06 -999 -999 -999  
2001-06-05 10:09:38 51°8.956 2°35.06 -999 -999 -999  
2001-06-05 10:09:43 51°8.96 2°35.06 -999 -999 -999  
2001-06-05 10:09:48 51°8.964 2°35.059 -999 -999 -999  
2001-06-05 10:09:53 51°8.968 2°35.058 -999 -999 -999  
2001-06-05 10:09:58 51°8.971 2°35.057 -999 -999 -999  
2001-06-05 10:10:03 51°8.974 2°35.055 -999 -999 -999  
2001-06-05 10:10:08 51°8.977 2°35.053 -999 -999 -999  
2001-06-05 10:10:13 51°8.98 2°35.05 -999 -999 -999  
2001-06-05 10:10:18 51°8.982 2°35.047 -999 -999 -999  
2001-06-05 10:10:23 51°8.984 2°35.045 -999 -999 -999  
2001-06-05 10:10:28 51°8.986 2°35.041 -999 -999 -999  
2001-06-05 10:10:33 51°8.988 2°35.038 -999 -999 -999  
2001-06-05 10:10:38 51°8.989 2°35.035 -999 -999 -999  
2001-06-05 10:10:43 51°8.99 2°35.031 -999 -999 -999  
2001-06-05 10:10:47 51°8.99 2°35.029 -999 -999 -999  
2001-06-05 10:10:53 51°8.991 2°35.024 -999 -999 -999  
2001-06-05 10:10:58 51°8.991 2°35.021 -999 -999 -999  
2001-06-05 10:11:03 51°8.99 2°35.018 -999 -999 -999  
2001-06-05 10:11:08 51°8.99 2°35.015 -999 -999 -999  
2001-06-05 10:11:13 51°8.989 2°35.012 -999 -999 -999  
2001-06-05 10:11:18 51°8.988 2°35.009 -999 -999 -999  
2001-06-05 10:11:23 51°8.987 2°35.006 -999 -999 -999  
2001-06-05 10:11:28 51°8.985 2°35.003 -999 -999 -999  
2001-06-05 10:11:33 51°8.983 2°35 -999 -999 -999  
2001-06-05 10:11:38 51°8.982 2°34.997 -999 -999 -999  
2001-06-05 10:11:43 51°8.98 2°34.994 -999 -999 -999  
2001-06-05 10:11:48 51°8.978 2°34.991 -999 -999 -999  
2001-06-05 10:11:53 51°8.975 2°34.987 -999 -999 -999  
2001-06-05 10:11:58 51°8.973 2°34.984 -999 -999 -999  
2001-06-05 10:12:03 51°8.971 2°34.981 -999 -999 -999  
2001-06-05 10:12:07 51°8.969 2°34.978 -999 -999 -999  
2001-06-05 10:12:13 51°8.966 2°34.973 -999 -999 -999  
2001-06-05 10:12:18 51°8.964 2°34.969 -999 -999 -999  
2001-06-05 10:12:23 51°8.963 2°34.965 -999 -999 -999  
2001-06-05 10:12:28 51°8.961 2°34.961 -999 -999 -999  
2001-06-05 10:12:33 51°8.96 2°34.956 -999 -999 -999  
2001-06-05 10:12:38 51°8.959 2°34.951 -999 -999 -999  
2001-06-05 10:12:43 51°8.958 2°34.946 -999 -999 -999  
2001-06-05 10:12:48 51°8.958 2°34.941 -999 -999 -999  
2001-06-05 10:12:53 51°8.957 2°34.937 -999 -999 -999  
2001-06-05 10:12:58 51°8.957 2°34.932 -999 -999 -999  
2001-06-05 10:13:03 51°8.956 2°34.928 -999 -999 -999  
2001-06-05 10:13:08 51°8.956 2°34.923 -999 -999 -999  
2001-06-05 10:13:13 51°8.956 2°34.919 -999 -999 -999  
2001-06-05 10:13:18 51°8.955 2°34.915 -999 -999 -999  
2001-06-05 10:13:23 51°8.955 2°34.912 -999 -999 -999  
2001-06-05 10:13:27 51°8.955 2°34.909 -999 -999 -999  
2001-06-05 10:13:33 51°8.955 2°34.905 -999 -999 -999  
2001-06-05 10:13:38 51°8.955 2°34.901 -999 -999 -999  
2001-06-05 10:13:43 51°8.954 2°34.898 -999 -999 -999  
2001-06-05 10:13:48 51°8.954 2°34.895 -999 -999 -999  
2001-06-05 10:13:53 51°8.954 2°34.892 -999 -999 -999  
2001-06-05 10:13:58 51°8.954 2°34.89 -999 -999 -999  
2001-06-05 10:14:03 51°8.954 2°34.887 -999 -999 -999  
2001-06-05 10:14:08 51°8.954 2°34.884 -999 -999 -999  
2001-06-05 10:14:13 51°8.954 2°34.882 -999 -999 -999  
2001-06-05 10:14:18 51°8.954 2°34.879 -999 -999 -999  
2001-06-05 10:14:23 51°8.954 2°34.877 -999 -999 -999  
2001-06-05 10:14:28 51°8.953 2°34.875 -999 -999 -999  
2001-06-05 10:14:33 51°8.953 2°34.873 -999 -999 -999  
2001-06-05 10:14:38 51°8.953 2°34.871 -999 -999 -999  
2001-06-05 10:14:43 51°8.953 2°34.869 -999 -999 -999  
2001-06-05 10:14:47 51°8.953 2°34.867 -999 -999 -999  
2001-06-05 10:14:53 51°8.953 2°34.866 -999 -999 -999  
2001-06-05 10:14:58 51°8.953 2°34.864 -999 -999 -999  
2001-06-05 10:15:03 51°8.953 2°34.862 -999 -999 -999  
2001-06-05 10:15:08 51°8.952 2°34.861 -999 -999 -999  
2001-06-05 10:15:13 51°8.952 2°34.86 -999 -999 -999  
2001-06-05 10:15:17 51°8.952 2°34.859 -999 -999 -999  
2001-06-05 10:15:23 51°8.952 2°34.857 -999 -999 -999  
2001-06-05 10:15:28 51°8.952 2°34.856 -999 -999 -999  
2001-06-05 10:15:33 51°8.952 2°34.855 -999 -999 -999  
2001-06-05 10:15:38 51°8.952 2°34.854 -999 -999 -999  
2001-06-05 10:15:43 51°8.951 2°34.853 -999 -999 -999  
2001-06-05 10:15:48 51°8.951 2°34.853 -999 -999 -999  
2001-06-05 10:15:53 51°8.951 2°34.852 -999 -999 -999  
2001-06-05 10:15:58 51°8.95 2°34.851 -999 -999 -999  
2001-06-05 10:16:03 51°8.95 2°34.851 -999 -999 -999  
2001-06-05 10:16:08 51°8.95 2°34.85 -999 -999 -999  
2001-06-05 10:16:13 51°8.949 2°34.85 -999 -999 -999  
2001-06-05 10:16:18 51°8.949 2°34.85 -999 -999 -999  
2001-06-05 10:16:23 51°8.949 2°34.85 -999 -999 -999  
2001-06-05 10:16:28 51°8.948 2°34.849 -999 -999 -999  
2001-06-05 10:16:33 51°8.948 2°34.849 -999 -999 -999  
2001-06-05 10:16:38 51°8.948 2°34.849 -999 -999 -999  
2001-06-05 10:16:43 51°8.948 2°34.85 -999 -999 -999  
2001-06-05 10:16:48 51°8.947 2°34.85 -999 -999 -999  
2001-06-05 10:16:53 51°8.947 2°34.85 -999 -999 -999  
2001-06-05 10:16:58 51°8.947 2°34.85 -999 -999 -999  
2001-06-05 10:17:03 51°8.946 2°34.851 -999 -999 -999  
2001-06-05 10:17:08 51°8.946 2°34.851 -999 -999 -999  
2001-06-05 10:17:13 51°8.946 2°34.852 -999 -999 -999  
2001-06-05 10:17:18 51°8.945 2°34.852 -999 -999 -999  
2001-06-05 10:17:23 51°8.945 2°34.853 -999 -999 -999  
2001-06-05 10:17:28 51°8.944 2°34.854 -999 -999 -999  
2001-06-05 10:17:33 51°8.944 2°34.855 -999 -999 -999  
2001-06-05 10:17:38 51°8.944 2°34.855 -999 -999 -999  
2001-06-05 10:17:43 51°8.943 2°34.856 -999 -999 -999  
2001-06-05 10:17:47 51°8.943 2°34.857 -999 -999 -999  
2001-06-05 10:17:53 51°8.943 2°34.858 -999 -999 -999  
2001-06-05 10:17:58 51°8.942 2°34.859 -999 -999 -999  
2001-06-05 10:18:03 51°8.942 2°34.86 -999 -999 -999  
2001-06-05 10:18:08 51°8.942 2°34.861 -999 -999 -999  
2001-06-05 10:18:13 51°8.941 2°34.862 -999 -999 -999  
2001-06-05 10:18:18 51°8.941 2°34.863 -999 -999 -999  
2001-06-05 10:18:23 51°8.941 2°34.864 -999 -999 -999  
2001-06-05 10:18:28 51°8.941 2°34.866 -999 -999 -999  
2001-06-05 10:18:33 51°8.94 2°34.867 -999 -999 -999  
2001-06-05 10:18:37 51°8.94 2°34.868 -999 -999 -999  
2001-06-05 10:18:43 51°8.94 2°34.869 -999 -999 -999  
2001-06-05 10:18:48 51°8.939 2°34.871 -999 -999 -999  
2001-06-05 10:18:53 51°8.939 2°34.872 -999 -999 -999  
2001-06-05 10:18:58 51°8.939 2°34.874 -999 -999 -999  
2001-06-05 10:19:03 51°8.939 2°34.875 -999 -999 -999  
2001-06-05 10:19:07 51°8.939 2°34.876 -999 -999 -999  
2001-06-05 10:19:13 51°8.938 2°34.878 -999 -999 -999  
2001-06-05 10:19:18 51°8.938 2°34.88 -999 -999 -999  
2001-06-05 10:19:23 51°8.938 2°34.881 -999 -999 -999  
2001-06-05 10:19:28 51°8.938 2°34.882 -999 -999 -999  
2001-06-05 10:19:33 51°8.938 2°34.884 -999 -999 -999  
2001-06-05 10:19:37 51°8.938 2°34.885 -999 -999 -999  
2001-06-05 10:19:43 51°8.938 2°34.887 -999 -999 -999  
2001-06-05 10:19:48 51°8.937 2°34.889 -999 -999 -999  
2001-06-05 10:19:53 51°8.937 2°34.891 -999 -999 -999  
2001-06-05 10:19:58 51°8.937 2°34.892 -999 -999 -999  
2001-06-05 10:20:03 51°8.937 2°34.894 -999 -999 -999  
2001-06-05 10:20:08 51°8.937 2°34.896 -999 -999 -999  
2001-06-05 10:20:13 51°8.937 2°34.897 -999 -999 -999  
2001-06-05 10:20:18 51°8.937 2°34.899 -999 -999 -999  
2001-06-05 10:20:23 51°8.937 2°34.901 -999 -999 -999  
2001-06-05 10:20:28 51°8.937 2°34.903 -999 -999 -999  
2001-06-05 10:20:33 51°8.937 2°34.905 -999 -999 -999  
2001-06-05 10:20:38 51°8.936 2°34.907 -999 -999 -999  
2001-06-05 10:20:43 51°8.936 2°34.908 -999 -999 -999  
2001-06-05 10:20:48 51°8.936 2°34.91 -999 -999 -999  
2001-06-05 10:20:53 51°8.936 2°34.912 -999 -999 -999  
2001-06-05 10:20:58 51°8.936 2°34.914 -999 -999 -999  
2001-06-05 10:21:03 51°8.936 2°34.916 -999 -999 -999  
2001-06-05 10:21:08 51°8.936 2°34.918 -999 -999 -999  
2001-06-05 10:21:13 51°8.936 2°34.92 -999 -999 -999  
2001-06-05 10:21:18 51°8.936 2°34.922 -999 -999 -999  
2001-06-05 10:21:23 51°8.936 2°34.924 -999 -999 -999  
2001-06-05 10:21:28 51°8.936 2°34.926 -999 -999 -999  
2001-06-05 10:21:33 51°8.936 2°34.928 -999 -999 -999  
2001-06-05 10:21:38 51°8.936 2°34.93 -999 -999 -999  
2001-06-05 10:21:43 51°8.936 2°34.932 -999 -999 -999  
2001-06-05 10:21:48 51°8.936 2°34.934 -999 -999 -999  
2001-06-05 10:21:53 51°8.936 2°34.936 -999 -999 -999  
2001-06-05 10:21:58 51°8.936 2°34.938 -999 -999 -999  
2001-06-05 10:22:03 51°8.936 2°34.94 -999 -999 -999  
2001-06-05 10:22:07 51°8.937 2°34.942 -999 -999 -999  
2001-06-05 10:22:13 51°8.937 2°34.944 -999 -999 -999  
2001-06-05 10:22:18 51°8.937 2°34.947 -999 -999 -999  
2001-06-05 10:22:23 51°8.937 2°34.949 -999 -999 -999  
2001-06-05 10:22:28 51°8.937 2°34.951 -999 -999 -999  
2001-06-05 10:22:33 51°8.937 2°34.953 -999 -999 -999  
2001-06-05 10:22:38 51°8.937 2°34.955 -999 -999 -999  
2001-06-05 10:22:43 51°8.937 2°34.957 -999 -999 -999  
2001-06-05 10:22:48 51°8.938 2°34.959 -999 -999 -999  
2001-06-05 10:22:53 51°8.938 2°34.961 -999 -999 -999  
2001-06-05 10:22:58 51°8.938 2°34.963 -999 -999 -999  
2001-06-05 10:23:03 51°8.938 2°34.966 -999 -999 -999  
2001-06-05 10:23:08 51°8.938 2°34.968 -999 -999 -999  
2001-06-05 10:23:13 51°8.939 2°34.97 -999 -999 -999  
2001-06-05 10:23:18 51°8.939 2°34.972 -999 -999 -999  
2001-06-05 10:23:23 51°8.939 2°34.975 -999 -999 -999  
2001-06-05 10:23:27 51°8.939 2°34.977 -999 -999 -999  
2001-06-05 10:23:33 51°8.939 2°34.979 -999 -999 -999  
2001-06-05 10:23:38 51°8.94 2°34.981 -999 -999 -999  
2001-06-05 10:23:43 51°8.94 2°34.984 -999 -999 -999  
2001-06-05 10:23:48 51°8.94 2°34.986 -999 -999 -999  
2001-06-05 10:23:53 51°8.94 2°34.988 -999 -999 -999  
2001-06-05 10:23:58 51°8.941 2°34.99 -999 -999 -999  
2001-06-05 10:24:03 51°8.941 2°34.993 -999 -999 -999  
2001-06-05 10:24:08 51°8.941 2°34.995 -999 -999 -999  
2001-06-05 10:24:13 51°8.942 2°34.997 -999 -999 -999  
2001-06-05 10:24:18 51°8.942 2°34.999 -999 -999 -999  
2001-06-05 10:24:23 51°8.942 2°35.002 -999 -999 -999  
2001-06-05 10:24:28 51°8.943 2°35.004 -999 -999 -999  
2001-06-05 10:24:33 51°8.943 2°35.006 -999 -999 -999  
2001-06-05 10:24:38 51°8.943 2°35.009 -999 -999 -999  
2001-06-05 10:24:43 51°8.944 2°35.011 -999 -999 -999  
2001-06-05 10:24:47 51°8.944 2°35.013 -999 -999 -999  
2001-06-05 10:24:53 51°8.944 2°35.016 -999 -999 -999  
2001-06-05 10:24:58 51°8.945 2°35.018 -999 -999 -999  
2001-06-05 10:25:03 51°8.945 2°35.02 -999 -999 -999  
2001-06-05 10:25:08 51°8.946 2°35.023 -999 -999 -999  
2001-06-05 10:25:13 51°8.946 2°35.025 -999 -999 -999  
2001-06-05 10:25:18 51°8.947 2°35.027 -999 -999 -999  
2001-06-05 10:25:23 51°8.947 2°35.03 -999 -999 -999  
2001-06-05 10:25:28 51°8.947 2°35.032 -999 -999 -999  
2001-06-05 10:25:33 51°8.948 2°35.035 -999 -999 -999  
2001-06-05 10:25:38 51°8.948 2°35.037 -999 -999 -999  
2001-06-05 10:25:43 51°8.949 2°35.039 -999 -999 -999  
2001-06-05 10:25:48 51°8.949 2°35.042 -999 -999 -999  
2001-06-05 10:25:53 51°8.95 2°35.044 -999 -999 -999  
2001-06-05 10:25:58 51°8.95 2°35.047 -999 -999 -999  
2001-06-05 10:26:03 51°8.95 2°35.049 -999 -999 -999  
2001-06-05 10:26:08 51°8.951 2°35.052 -999 -999 -999  
2001-06-05 10:26:13 51°8.952 2°35.054 -999 -999 -999  
2001-06-05 10:26:18 51°8.952 2°35.057 -999 -999 -999  
2001-06-05 10:26:23 51°8.953 2°35.059 -999 -999 -999  
2001-06-05 10:26:27 51°8.953 2°35.061 -999 -999 -999  
2001-06-05 10:26:33 51°8.954 2°35.064 -999 -999 -999  
2001-06-05 10:26:38 51°8.954 2°35.067 -999 -999 -999  
2001-06-05 10:26:43 51°8.955 2°35.069 -999 -999 -999  
2001-06-05 10:26:48 51°8.955 2°35.072 -999 -999 -999  
2001-06-05 10:26:53 51°8.956 2°35.074 -999 -999 -999  
2001-06-05 10:26:58 51°8.956 2°35.077 -999 -999 -999  
2001-06-05 10:27:03 51°8.957 2°35.079 -999 -999 -999  
2001-06-05 10:27:08 51°8.957 2°35.082 -999 -999 -999  
2001-06-05 10:27:13 51°8.958 2°35.084 -999 -999 -999  
2001-06-05 10:27:17 51°8.958 2°35.086 -999 -999 -999  
2001-06-05 10:27:23 51°8.959 2°35.089 -999 -999 -999  
2001-06-05 10:27:28 51°8.959 2°35.092 -999 -999 -999  
2001-06-05 10:27:33 51°8.96 2°35.094 -999 -999 -999  
2001-06-05 10:27:38 51°8.961 2°35.097 -999 -999 -999  
2001-06-05 10:27:43 51°8.961 2°35.099 -999 -999 -999  
2001-06-05 10:27:47 51°8.962 2°35.101 -999 -999 -999  
2001-06-05 10:27:53 51°8.962 2°35.104 -999 -999 -999  
2001-06-05 10:27:58 51°8.963 2°35.107 -999 -999 -999  
2001-06-05 10:28:03 51°8.964 2°35.109 -999 -999 -999  
2001-06-05 10:28:08 51°8.964 2°35.112 -999 -999 -999  
2001-06-05 10:28:13 51°8.965 2°35.114 -999 -999 -999  
2001-06-05 10:28:17 51°8.965 2°35.116 -999 -999 -999  
2001-06-05 10:28:23 51°8.966 2°35.119 -999 -999 -999  
2001-06-05 10:28:29 51°8.967 2°35.122 -999 -999 -999  
2001-06-05 10:28:33 51°8.968 2°35.124 -999 -999 -999  
2001-06-05 10:28:38 51°8.968 2°35.127 -999 -999 -999  
2001-06-05 10:28:43 51°8.969 2°35.129 -999 -999 -999  
2001-06-05 10:28:47 51°8.969 2°35.131 -999 -999 -999  
2001-06-05 10:28:53 51°8.97 2°35.134 -999 -999 -999  
2001-06-05 10:28:57 51°8.97 2°35.136 -999 -999 -999  
2001-06-05 10:29:03 51°8.971 2°35.139 -999 -999 -999  
2001-06-05 10:29:08 51°8.972 2°35.142 -999 -999 -999  
2001-06-05 10:29:13 51°8.972 2°35.144 -999 -999 -999  
2001-06-05 10:29:18 51°8.973 2°35.147 -999 -999 -999  
2001-06-05 10:29:23 51°8.973 2°35.15 -999 -999 -999  
2001-06-05 10:29:28 51°8.974 2°35.152 -999 -999 -999  
2001-06-05 10:29:33 51°8.975 2°35.155 -999 -999 -999  
2001-06-05 10:29:38 51°8.975 2°35.157 -999 -999 -999  
2001-06-05 10:29:43 51°8.976 2°35.16 -999 -999 -999  
2001-06-05 10:29:48 51°8.977 2°35.162 -999 -999 -999  
2001-06-05 10:29:53 51°8.977 2°35.165 -999 -999 -999  
2001-06-05 10:29:58 51°8.978 2°35.168 -999 -999 -999  
2001-06-05 10:30:03 51°8.978 2°35.17 -999 -999 -999  
2001-06-05 10:30:07 51°8.979 2°35.172 -999 -999 -999  
2001-06-05 10:30:13 51°8.98 2°35.175 -999 -999 -999  
2001-06-05 10:30:18 51°8.981 2°35.178 -999 -999 -999  
2001-06-05 10:30:23 51°8.981 2°35.18 -999 -999 -999  
2001-06-05 10:30:28 51°8.982 2°35.183 -999 -999 -999  
2001-06-05 10:30:33 51°8.983 2°35.185 -999 -999 -999  
2001-06-05 10:30:38 51°8.983 2°35.188 -999 -999 -999  
2001-06-05 10:30:43 51°8.984 2°35.191 -999 -999 -999  
2001-06-05 10:30:49 51°8.985 2°35.194 -999 -999 -999  
2001-06-05 10:30:53 51°8.986 2°35.196 -999 -999 -999  
2001-06-05 10:30:58 51°8.986 2°35.198 -999 -999 -999  
2001-06-05 10:31:03 51°8.987 2°35.201 -999 -999 -999  
2001-06-05 10:31:08 51°8.988 2°35.203 -999 -999 -999  
2001-06-05 10:31:13 51°8.989 2°35.206 -999 -999 -999  
2001-06-05 10:31:18 51°8.989 2°35.209 -999 -999 -999  
2001-06-05 10:31:24 51°8.99 2°35.212 -999 -999 -999  
2001-06-05 10:31:27 51°8.99 2°35.214 -999 -999 -999  
2001-06-05 10:31:33 51°8.991 2°35.217 -999 -999 -999  
2001-06-05 10:31:38 51°8.992 2°35.219 -999 -999 -999  
2001-06-05 10:31:43 51°8.993 2°35.222 -999 -999 -999  
2001-06-05 10:31:47 51°8.993 2°35.224 -999 -999 -999  
2001-06-05 10:31:53 51°8.994 2°35.227 -999 -999 -999  
2001-06-05 10:31:58 51°8.995 2°35.23 -999 -999 -999  
2001-06-05 10:32:03 51°8.996 2°35.232 -999 -999 -999  
2001-06-05 10:32:07 51°8.996 2°35.234 -999 -999 -999  
2001-06-05 10:32:13 51°8.997 2°35.238 -999 -999 -999  
2001-06-05 10:32:18 51°8.998 2°35.24 -999 -999 -999  
2001-06-05 10:32:23 51°8.999 2°35.243 -999 -999 -999  
2001-06-05 10:32:28 51°8.999 2°35.245 -999 -999 -999  
2001-06-05 10:32:34 51°9 2°35.248 -999 -999 -999  
2001-06-05 10:32:38 51°9.001 2°35.25 -999 -999 -999  
2001-06-05 10:32:43 51°9.002 2°35.253 -999 -999 -999  
2001-06-05 10:32:48 51°9.003 2°35.256 -999 -999 -999  
2001-06-05 10:32:53 51°9.003 2°35.258 -999 -999 -999  
2001-06-05 10:32:58 51°9.004 2°35.261 -999 -999 -999  
2001-06-05 10:33:03 51°9.005 2°35.263 -999 -999 -999  
2001-06-05 10:33:08 51°9.006 2°35.266 -999 -999 -999  
2001-06-05 10:33:13 51°9.006 2°35.269 -999 -999 -999  
2001-06-05 10:33:18 51°9.007 2°35.272 -999 -999 -999  
2001-06-05 10:33:23 51°9.007 2°35.274 -999 -999 -999  
2001-06-05 10:33:27 51°9.008 2°35.277 -999 -999 -999  
2001-06-05 10:33:33 51°9.009 2°35.28 -999 -999 -999  
2001-06-05 10:33:38 51°9.01 2°35.282 -999 -999 -999  
2001-06-05 10:33:43 51°9.011 2°35.285 -999 -999 -999  
2001-06-05 10:33:48 51°9.011 2°35.288 -999 -999 -999  
2001-06-05 10:33:53 51°9.012 2°35.29 -999 -999 -999  
2001-06-05 10:33:58 51°9.013 2°35.293 -999 -999 -999  
2001-06-05 10:34:03 51°9.014 2°35.296 -999 -999 -999  
2001-06-05 10:34:08 51°9.015 2°35.298 -999 -999 -999  
2001-06-05 10:34:13 51°9.015 2°35.301 -999 -999 -999  
2001-06-05 10:34:19 51°9.016 2°35.304 -999 -999 -999  
2001-06-05 10:34:23 51°9.017 2°35.306 -999 -999 -999  
2001-06-05 10:34:28 51°9.018 2°35.309 -999 -999 -999  
2001-06-05 10:34:33 51°9.018 2°35.312 -999 -999 -999  
2001-06-05 10:34:38 51°9.019 2°35.314 -999 -999 -999  
2001-06-05 10:34:43 51°9.02 2°35.317 -999 -999 -999  
2001-06-05 10:34:49 51°9.021 2°35.32 -999 -999 -999  
2001-06-05 10:34:53 51°9.021 2°35.322 -999 -999 -999  
2001-06-05 10:34:58 51°9.022 2°35.325 -999 -999 -999  
2001-06-05 10:35:03 51°9.023 2°35.327 -999 -999 -999  
2001-06-05 10:35:08 51°9.024 2°35.33 -999 -999 -999  
2001-06-05 10:35:13 51°9.024 2°35.333 -999 -999 -999  
2001-06-05 10:35:18 51°9.025 2°35.335 -999 -999 -999  
2001-06-05 10:35:23 51°9.026 2°35.338 -999 -999 -999  
2001-06-05 10:35:29 51°9.027 2°35.341 -999 -999 -999  
2001-06-05 10:35:33 51°9.027 2°35.343 -999 -999 -999  
2001-06-05 10:35:38 51°9.028 2°35.346 -999 -999 -999  
2001-06-05 10:35:43 51°9.029 2°35.349 -999 -999 -999  
2001-06-05 10:35:47 51°9.03 2°35.351 -999 -999 -999  
2001-06-05 10:35:53 51°9.031 2°35.354 -999 -999 -999  
2001-06-05 10:35:58 51°9.031 2°35.357 -999 -999 -999  
2001-06-05 10:36:03 51°9.032 2°35.359 -999 -999 -999  
2001-06-05 10:36:08 51°9.033 2°35.362 -999 -999 -999  
2001-06-05 10:36:13 51°9.034 2°35.365 -999 -999 -999  
2001-06-05 10:36:18 51°9.034 2°35.367 -999 -999 -999  
2001-06-05 10:36:23 51°9.035 2°35.37 -999 -999 -999  
2001-06-05 10:36:28 51°9.036 2°35.372 -999 -999 -999  
2001-06-05 10:36:34 51°9.037 2°35.376 -999 -999 -999  
2001-06-05 10:36:37 51°9.038 2°35.377 -999 -999 -999  
2001-06-05 10:36:43 51°9.038 2°35.381 -999 -999 -999  
2001-06-05 10:36:48 51°9.039 2°35.383 -999 -999 -999  
2001-06-05 10:36:53 51°9.04 2°35.386 -999 -999 -999  
2001-06-05 10:36:58 51°9.041 2°35.388 -999 -999 -999  
2001-06-05 10:37:03 51°9.042 2°35.391 -999 -999 -999  
2001-06-05 10:37:07 51°9.042 2°35.393 -999 -999 -999  
2001-06-05 10:37:13 51°9.043 2°35.396 -999 -999 -999  
2001-06-05 10:37:18 51°9.044 2°35.399 -999 -999 -999  
2001-06-05 10:37:23 51°9.045 2°35.402 -999 -999 -999  
2001-06-05 10:37:28 51°9.046 2°35.404 -999 -999 -999  
2001-06-05 10:37:33 51°9.047 2°35.407 -999 -999 -999  
2001-06-05 10:37:37 51°9.047 2°35.409 -999 -999 -999  
2001-06-05 10:37:43 51°9.048 2°35.412 -999 -999 -999  
2001-06-05 10:37:48 51°9.049 2°35.415 -999 -999 -999  
2001-06-05 10:37:53 51°9.05 2°35.418 -999 -999 -999  
2001-06-05 10:37:58 51°9.051 2°35.421 -999 -999 -999  
2001-06-05 10:38:03 51°9.052 2°35.423 -999 -999 -999  
2001-06-05 10:38:08 51°9.052 2°35.426 -999 -999 -999  
2001-06-05 10:38:13 51°9.053 2°35.429 -999 -999 -999  
2001-06-05 10:38:18 51°9.054 2°35.431 -999 -999 -999  
2001-06-05 10:38:24 51°9.055 2°35.434 -999 -999 -999  
2001-06-05 10:38:27 51°9.055 2°35.436 -999 -999 -999  
2001-06-05 10:38:33 51°9.056 2°35.439 -999 -999 -999  
2001-06-05 10:38:38 51°9.057 2°35.442 -999 -999 -999  
2001-06-05 10:38:43 51°9.058 2°35.445 -999 -999 -999  
2001-06-05 10:38:48 51°9.059 2°35.447 -999 -999 -999  
2001-06-05 10:38:53 51°9.06 2°35.45 -999 -999 -999  
2001-06-05 10:38:58 51°9.061 2°35.453 -999 -999 -999  
2001-06-05 10:39:03 51°9.061 2°35.455 -999 -999 -999  
2001-06-05 10:39:08 51°9.062 2°35.458 -999 -999 -999  
2001-06-05 10:39:13 51°9.063 2°35.461 -999 -999 -999  
2001-06-05 10:39:18 51°9.064 2°35.464 -999 -999 -999  
2001-06-05 10:39:23 51°9.065 2°35.466 -999 -999 -999  
2001-06-05 10:39:28 51°9.066 2°35.469 -999 -999 -999  
2001-06-05 10:39:33 51°9.067 2°35.472 -999 -999 -999  
2001-06-05 10:39:38 51°9.068 2°35.474 -999 -999 -999  
2001-06-05 10:39:43 51°9.068 2°35.477 -999 -999 -999  
2001-06-05 10:39:47 51°9.069 2°35.479 -999 -999 -999  
2001-06-05 10:39:53 51°9.07 2°35.483 -999 -999 -999  
2001-06-05 10:39:58 51°9.071 2°35.485 -999 -999 -999  
2001-06-05 10:40:03 51°9.072 2°35.488 -999 -999 -999  
2001-06-05 10:40:08 51°9.073 2°35.491 -999 -999 -999  
2001-06-05 10:40:13 51°9.073 2°35.494 -999 -999 -999  
2001-06-05 10:40:18 51°9.074 2°35.496 -999 -999 -999  
2001-06-05 10:40:23 51°9.075 2°35.499 -999 -999 -999  
2001-06-05 10:40:28 51°9.076 2°35.502 -999 -999 -999  
2001-06-05 10:40:33 51°9.077 2°35.504 -999 -999 -999  
2001-06-05 10:40:38 51°9.078 2°35.507 -999 -999 -999  
2001-06-05 10:40:43 51°9.079 2°35.51 -999 -999 -999  
2001-06-05 10:40:48 51°9.08 2°35.513 -999 -999 -999  
2001-06-05 10:40:53 51°9.08 2°35.516 -999 -999 -999  
2001-06-05 10:40:58 51°9.081 2°35.518 -999 -999 -999  
2001-06-05 10:41:03 51°9.082 2°35.521 -999 -999 -999  
2001-06-05 10:41:08 51°9.083 2°35.524 -999 -999 -999  
2001-06-05 10:41:13 51°9.084 2°35.527 -999 -999 -999  
2001-06-05 10:41:18 51°9.084 2°35.529 -999 -999 -999  
2001-06-05 10:41:23 51°9.085 2°35.532 -999 -999 -999  
2001-06-05 10:41:27 51°9.086 2°35.534 -999 -999 -999  
2001-06-05 10:41:33 51°9.087 2°35.538 -999 -999 -999  
2001-06-05 10:41:38 51°9.088 2°35.54 -999 -999 -999  
2001-06-05 10:41:43 51°9.089 2°35.543 -999 -999 -999  
2001-06-05 10:41:48 51°9.09 2°35.546 -999 -999 -999  
2001-06-05 10:41:53 51°9.091 2°35.549 -999 -999 -999  
2001-06-05 10:41:58 51°9.092 2°35.552 -999 -999 -999  
2001-06-05 10:42:03 51°9.092 2°35.554 -999 -999 -999  
2001-06-05 10:42:08 51°9.093 2°35.557 -999 -999 -999  
2001-06-05 10:42:13 51°9.094 2°35.56 -999 -999 -999  
2001-06-05 10:42:17 51°9.095 2°35.562 -999 -999 -999  
2001-06-05 10:42:23 51°9.096 2°35.565 -999 -999 -999  
2001-06-05 10:42:28 51°9.096 2°35.568 -999 -999 -999  
2001-06-05 10:42:33 51°9.097 2°35.571 -999 -999 -999  
2001-06-05 10:42:38 51°9.098 2°35.574 -999 -999 -999  
2001-06-05 10:42:43 51°9.099 2°35.577 -999 -999 -999  
2001-06-05 10:42:48 51°9.1 2°35.579 -999 -999 -999  
2001-06-05 10:42:53 51°9.101 2°35.582 -999 -999 -999  
2001-06-05 10:42:58 51°9.102 2°35.585 -999 -999 -999  
2001-06-05 10:43:03 51°9.102 2°35.588 -999 -999 -999  
2001-06-05 10:43:08 51°9.103 2°35.591 -999 -999 -999  
2001-06-05 10:43:13 51°9.104 2°35.593 -999 -999 -999  
2001-06-05 10:43:18 51°9.105 2°35.596 -999 -999 -999  
2001-06-05 10:43:23 51°9.106 2°35.599 -999 -999 -999  
2001-06-05 10:43:28 51°9.106 2°35.602 -999 -999 -999  
2001-06-05 10:43:33 51°9.107 2°35.605 -999 -999 -999  
2001-06-05 10:43:38 51°9.108 2°35.608 -999 -999 -999  
2001-06-05 10:43:43 51°9.109 2°35.611 -999 -999 -999  
2001-06-05 10:43:48 51°9.109 2°35.614 -999 -999 -999  
2001-06-05 10:43:53 51°9.11 2°35.617 -999 -999 -999  
2001-06-05 10:43:58 51°9.111 2°35.62 -999 -999 -999  
2001-06-05 10:44:03 51°9.112 2°35.622 -999 -999 -999  
2001-06-05 10:44:07 51°9.112 2°35.625 -999 -999 -999  
2001-06-05 10:44:13 51°9.114 2°35.628 -999 -999 -999  
2001-06-05 10:44:18 51°9.114 2°35.631 -999 -999 -999  
2001-06-05 10:44:23 51°9.115 2°35.634 -999 -999 -999  
2001-06-05 10:44:28 51°9.116 2°35.637 -999 -999 -999  
2001-06-05 10:44:33 51°9.117 2°35.64 -999 -999 -999  
2001-06-05 10:44:38 51°9.118 2°35.643 -999 -999 -999  
2001-06-05 10:44:43 51°9.118 2°35.646 -999 -999 -999  
2001-06-05 10:44:48 51°9.119 2°35.649 -999 -999 -999  
2001-06-05 10:44:53 51°9.12 2°35.652 -999 -999 -999  
2001-06-05 10:44:58 51°9.121 2°35.655 -999 -999 -999  
2001-06-05 10:45:03 51°9.122 2°35.657 -999 -999 -999  
2001-06-05 10:45:08 51°9.122 2°35.66 -999 -999 -999  
2001-06-05 10:45:13 51°9.123 2°35.663 -999 -999 -999  
2001-06-05 10:45:18 51°9.124 2°35.666 -999 -999 -999  
2001-06-05 10:45:23 51°9.125 2°35.669 -999 -999 -999  
2001-06-05 10:45:27 51°9.125 2°35.672 -999 -999 -999  
2001-06-05 10:45:33 51°9.126 2°35.675 -999 -999 -999  
2001-06-05 10:45:38 51°9.127 2°35.678 -999 -999 -999  
2001-06-05 10:45:43 51°9.128 2°35.681 -999 -999 -999  
2001-06-05 10:45:48 51°9.129 2°35.684 -999 -999 -999  
2001-06-05 10:45:53 51°9.13 2°35.687 -999 -999 -999  
2001-06-05 10:45:57 51°9.13 2°35.689 -999 -999 -999  
2001-06-05 10:46:03 51°9.131 2°35.693 -999 -999 -999  
2001-06-05 10:46:08 51°9.132 2°35.696 -999 -999 -999  
2001-06-05 10:46:13 51°9.133 2°35.699 -999 -999 -999  
2001-06-05 10:46:18 51°9.133 2°35.702 -999 -999 -999  
2001-06-05 10:46:23 51°9.134 2°35.705 -999 -999 -999  
2001-06-05 10:46:27 51°9.135 2°35.707 -999 -999 -999  
2001-06-05 10:46:33 51°9.136 2°35.711 -999 -999 -999  
2001-06-05 10:46:37 51°9.136 2°35.713 -999 -999 -999  
2001-06-05 10:46:43 51°9.137 2°35.717 -999 -999 -999  
2001-06-05 10:46:48 51°9.138 2°35.72 -999 -999 -999  
2001-06-05 10:46:53 51°9.139 2°35.723 -999 -999 -999  
2001-06-05 10:46:58 51°9.139 2°35.726 -999 -999 -999  
2001-06-05 10:47:03 51°9.14 2°35.729 -999 -999 -999  
2001-06-05 10:47:08 51°9.141 2°35.732 -999 -999 -999  
2001-06-05 10:47:13 51°9.141 2°35.736 -999 -999 -999  
2001-06-05 10:47:18 51°9.142 2°35.739 -999 -999 -999  
2001-06-05 10:47:23 51°9.143 2°35.742 -999 -999 -999  
2001-06-05 10:47:28 51°9.144 2°35.745 -999 -999 -999  
2001-06-05 10:47:33 51°9.144 2°35.748 -999 -999 -999  
2001-06-05 10:47:38 51°9.145 2°35.751 -999 -999 -999  
2001-06-05 10:47:43 51°9.146 2°35.754 -999 -999 -999  
2001-06-05 10:47:48 51°9.147 2°35.757 -999 -999 -999  
2001-06-05 10:47:53 51°9.147 2°35.76 -999 -999 -999  
2001-06-05 10:47:58 51°9.148 2°35.763 -999 -999 -999  
2001-06-05 10:48:03 51°9.149 2°35.766 -999 -999 -999  
2001-06-05 10:48:08 51°9.15 2°35.769 -999 -999 -999  
2001-06-05 10:48:13 51°9.151 2°35.772 -999 -999 -999  
2001-06-05 10:48:18 51°9.151 2°35.775 -999 -999 -999  
2001-06-05 10:48:23 51°9.152 2°35.778 -999 -999 -999  
2001-06-05 10:48:28 51°9.153 2°35.781 -999 -999 -999  
2001-06-05 10:48:33 51°9.154 2°35.784 -999 -999 -999  
2001-06-05 10:48:38 51°9.155 2°35.787 -999 -999 -999  
2001-06-05 10:48:43 51°9.156 2°35.79 -999 -999 -999  
2001-06-05 10:48:49 51°9.157 2°35.794 -999 -999 -999  
2001-06-05 10:48:53 51°9.157 2°35.796 -999 -999 -999  
2001-06-05 10:48:58 51°9.158 2°35.8 -999 -999 -999  
2001-06-05 10:49:03 51°9.159 2°35.803 -999 -999 -999  
2001-06-05 10:49:08 51°9.16 2°35.806 -999 -999 -999  
2001-06-05 10:49:13 51°9.16 2°35.809 -999 -999 -999  
2001-06-05 10:49:18 51°9.161 2°35.812 -999 -999 -999  
2001-06-05 10:49:23 51°9.162 2°35.815 -999 -999 -999  
2001-06-05 10:49:28 51°9.163 2°35.818 -999 -999 -999  
2001-06-05 10:49:33 51°9.163 2°35.821 -999 -999 -999  
2001-06-05 10:49:38 51°9.164 2°35.825 -999 -999 -999  
2001-06-05 10:49:43 51°9.165 2°35.828 -999 -999 -999  
2001-06-05 10:49:48 51°9.166 2°35.831 -999 -999 -999  
2001-06-05 10:49:53 51°9.167 2°35.834 -999 -999 -999  
2001-06-05 10:49:59 51°9.167 2°35.838 -999 -999 -999  
2001-06-05 10:50:03 51°9.168 2°35.84 -999 -999 -999  
2001-06-05 10:50:08 51°9.169 2°35.844 -999 -999 -999  
2001-06-05 10:50:13 51°9.169 2°35.847 -999 -999 -999  
2001-06-05 10:50:18 51°9.17 2°35.85 -999 -999 -999  
2001-06-05 10:50:23 51°9.171 2°35.853 -999 -999 -999  
2001-06-05 10:50:28 51°9.172 2°35.856 -999 -999 -999  
2001-06-05 10:50:33 51°9.173 2°35.859 -999 -999 -999  
2001-06-05 10:50:38 51°9.174 2°35.862 -999 -999 -999  
2001-06-05 10:50:43 51°9.174 2°35.865 -999 -999 -999  
2001-06-05 10:50:48 51°9.175 2°35.869 -999 -999 -999  
2001-06-05 10:50:53 51°9.176 2°35.872 -999 -999 -999  
2001-06-05 10:50:58 51°9.177 2°35.875 -999 -999 -999  
2001-06-05 10:51:03 51°9.178 2°35.878 -999 -999 -999  
2001-06-05 10:51:07 51°9.178 2°35.881 -999 -999 -999  
2001-06-05 10:51:13 51°9.179 2°35.884 -999 -999 -999  
2001-06-05 10:51:18 51°9.18 2°35.888 -999 -999 -999  
2001-06-05 10:51:23 51°9.181 2°35.891 -999 -999 -999  
2001-06-05 10:51:28 51°9.182 2°35.894 -999 -999 -999  
2001-06-05 10:51:34 51°9.183 2°35.898 -999 -999 -999  
2001-06-05 10:51:37 51°9.183 2°35.9 -999 -999 -999  
2001-06-05 10:51:43 51°9.184 2°35.904 -999 -999 -999  
2001-06-05 10:51:48 51°9.185 2°35.907 -999 -999 -999  
2001-06-05 10:51:53 51°9.186 2°35.91 -999 -999 -999  
2001-06-05 10:51:58 51°9.187 2°35.913 -999 -999 -999  
2001-06-05 10:52:03 51°9.188 2°35.916 -999 -999 -999  
2001-06-05 10:52:08 51°9.189 2°35.919 -999 -999 -999  
2001-06-05 10:52:13 51°9.189 2°35.923 -999 -999 -999  
2001-06-05 10:52:18 51°9.19 2°35.926 -999 -999 -999  
2001-06-05 10:52:23 51°9.191 2°35.929 -999 -999 -999  
2001-06-05 10:52:28 51°9.192 2°35.932 -999 -999 -999  
2001-06-05 10:52:33 51°9.193 2°35.935 -999 -999 -999  
2001-06-05 10:52:38 51°9.194 2°35.938 -999 -999 -999  
2001-06-05 10:52:43 51°9.195 2°35.942 -999 -999 -999  
2001-06-05 10:52:47 51°9.195 2°35.944 -999 -999 -999  
2001-06-05 10:52:53 51°9.196 2°35.948 -999 -999 -999  
2001-06-05 10:52:58 51°9.197 2°35.951 -999 -999 -999  
2001-06-05 10:53:03 51°9.198 2°35.954 -999 -999 -999  
2001-06-05 10:53:08 51°9.199 2°35.958 -999 -999 -999  
2001-06-05 10:53:13 51°9.2 2°35.961 -999 -999 -999  
2001-06-05 10:53:18 51°9.2 2°35.964 -999 -999 -999  
2001-06-05 10:53:23 51°9.201 2°35.967 -999 -999 -999  
2001-06-05 10:53:28 51°9.202 2°35.97 -999 -999 -999  
2001-06-05 10:53:33 51°9.203 2°35.974 -999 -999 -999  
2001-06-05 10:53:38 51°9.204 2°35.977 -999 -999 -999  
2001-06-05 10:53:43 51°9.205 2°35.98 -999 -999 -999  
2001-06-05 10:53:48 51°9.205 2°35.983 -999 -999 -999  
2001-06-05 10:53:53 51°9.206 2°35.986 -999 -999 -999  
2001-06-05 10:53:58 51°9.207 2°35.99 -999 -999 -999  
2001-06-05 10:54:04 51°9.208 2°35.994 -999 -999 -999  
2001-06-05 10:54:07 51°9.209 2°35.996 -999 -999 -999  
2001-06-05 10:54:13 51°9.209 2°35.999 -999 -999 -999  
2001-06-05 10:54:18 51°9.21 2°36.003 -999 -999 -999  
2001-06-05 10:54:23 51°9.211 2°36.006 -999 -999 -999  
2001-06-05 10:54:28 51°9.212 2°36.009 -999 -999 -999  
2001-06-05 10:54:33 51°9.213 2°36.012 -999 -999 -999  
2001-06-05 10:54:37 51°9.214 2°36.015 -999 -999 -999  
2001-06-05 10:54:43 51°9.215 2°36.018 -999 -999 -999  
2001-06-05 10:54:47 51°9.215 2°36.021 -999 -999 -999  
2001-06-05 10:54:53 51°9.216 2°36.025 -999 -999 -999  
2001-06-05 10:54:58 51°9.217 2°36.028 -999 -999 -999  
2001-06-05 10:55:03 51°9.218 2°36.031 -999 -999 -999  
2001-06-05 10:55:08 51°9.218 2°36.035 -999 -999 -999  
2001-06-05 10:55:13 51°9.219 2°36.038 -999 -999 -999  
2001-06-05 10:55:18 51°9.22 2°36.041 -999 -999 -999  
2001-06-05 10:55:23 51°9.221 2°36.044 -999 -999 -999  
2001-06-05 10:55:27 51°9.222 2°36.047 -999 -999 -999  
2001-06-05 10:55:33 51°9.223 2°36.051 -999 -999 -999  
2001-06-05 10:55:38 51°9.224 2°36.054 -999 -999 -999  
2001-06-05 10:55:43 51°9.224 2°36.057 -999 -999 -999  
2001-06-05 10:55:48 51°9.225 2°36.061 -999 -999 -999  
2001-06-05 10:55:53 51°9.226 2°36.064 -999 -999 -999  
2001-06-05 10:55:58 51°9.227 2°36.067 -999 -999 -999  
2001-06-05 10:56:03 51°9.228 2°36.071 -999 -999 -999  
2001-06-05 10:56:08 51°9.229 2°36.074 -999 -999 -999  
2001-06-05 10:56:13 51°9.23 2°36.077 -999 -999 -999  
2001-06-05 10:56:18 51°9.23 2°36.08 -999 -999 -999  
2001-06-05 10:56:23 51°9.231 2°36.083 -999 -999 -999  
2001-06-05 10:56:27 51°9.232 2°36.086 -999 -999 -999  
2001-06-05 10:56:33 51°9.233 2°36.09 -999 -999 -999  
2001-06-05 10:56:38 51°9.234 2°36.093 -999 -999 -999  
2001-06-05 10:56:43 51°9.235 2°36.096 -999 -999 -999  
2001-06-05 10:56:48 51°9.236 2°36.1 -999 -999 -999  
2001-06-05 10:56:54 51°9.237 2°36.104 -999 -999 -999  
2001-06-05 10:56:58 51°9.238 2°36.106 -999 -999 -999  
2001-06-05 10:57:03 51°9.239 2°36.11 -999 -999 -999  
2001-06-05 10:57:08 51°9.239 2°36.113 -999 -999 -999  
2001-06-05 10:57:13 51°9.24 2°36.116 -999 -999 -999  
2001-06-05 10:57:18 51°9.241 2°36.119 -999 -999 -999  
2001-06-05 10:57:23 51°9.242 2°36.123 -999 -999 -999  
2001-06-05 10:57:27 51°9.243 2°36.125 -999 -999 -999  
2001-06-05 10:57:33 51°9.244 2°36.129 -999 -999 -999  
2001-06-05 10:57:38 51°9.244 2°36.133 -999 -999 -999  
2001-06-05 10:57:43 51°9.245 2°36.136 -999 -999 -999  
2001-06-05 10:57:48 51°9.246 2°36.139 -999 -999 -999  
2001-06-05 10:57:53 51°9.247 2°36.143 -999 -999 -999  
2001-06-05 10:57:57 51°9.248 2°36.145 -999 -999 -999  
2001-06-05 10:58:03 51°9.249 2°36.149 -999 -999 -999  
2001-06-05 10:58:08 51°9.25 2°36.153 -999 -999 -999  
2001-06-05 10:58:13 51°9.251 2°36.156 -999 -999 -999  
2001-06-05 10:58:18 51°9.251 2°36.159 -999 -999 -999  
2001-06-05 10:58:23 51°9.252 2°36.162 -999 -999 -999  
2001-06-05 10:58:27 51°9.253 2°36.165 -999 -999 -999  
2001-06-05 10:58:33 51°9.254 2°36.169 -999 -999 -999  
2001-06-05 10:58:37 51°9.254 2°36.172 -999 -999 -999  
2001-06-05 10:58:43 51°9.256 2°36.176 -999 -999 -999  
2001-06-05 10:58:48 51°9.257 2°36.179 -999 -999 -999  
2001-06-05 10:58:53 51°9.257 2°36.183 -999 -999 -999  
2001-06-05 10:58:58 51°9.258 2°36.186 -999 -999 -999  
2001-06-05 10:59:03 51°9.259 2°36.189 -999 -999 -999  
2001-06-05 10:59:08 51°9.26 2°36.193 -999 -999 -999  
2001-06-05 10:59:13 51°9.261 2°36.196 -999 -999 -999  
2001-06-05 10:59:18 51°9.262 2°36.2 -999 -999 -999  
2001-06-05 10:59:23 51°9.263 2°36.203 -999 -999 -999  
2001-06-05 10:59:27 51°9.263 2°36.206 -999 -999 -999  
2001-06-05 10:59:33 51°9.264 2°36.21 -999 -999 -999  
2001-06-05 10:59:38 51°9.265 2°36.213 -999 -999 -999  
2001-06-05 10:59:43 51°9.266 2°36.217 -999 -999 -999  
2001-06-05 10:59:49 51°9.267 2°36.221 -999 -999 -999  
2001-06-05 10:59:53 51°9.267 2°36.223 -999 -999 -999  
2001-06-05 10:59:57 51°9.268 2°36.226 -999 -999 -999  
2001-06-05 11:00:03 51°9.269 2°36.23 -999 -999 -999  
2001-06-05 11:00:08 51°9.27 2°36.234 -999 -999 -999  
2001-06-05 11:00:13 51°9.271 2°36.237 -999 -999 -999  
2001-06-05 11:00:18 51°9.272 2°36.24 -999 -999 -999  
2001-06-05 11:00:23 51°9.272 2°36.244 -999 -999 -999  
2001-06-05 11:00:28 51°9.273 2°36.247 -999 -999 -999  
2001-06-05 11:00:33 51°9.274 2°36.25 -999 -999 -999  
2001-06-05 11:00:37 51°9.274 2°36.253 -999 -999 -999  
2001-06-05 11:00:43 51°9.275 2°36.257 -999 -999 -999  
2001-06-05 11:00:48 51°9.276 2°36.261 -999 -999 -999  
2001-06-05 11:00:53 51°9.277 2°36.264 -999 -999 -999  
2001-06-05 11:00:58 51°9.278 2°36.268 -999 -999 -999  
2001-06-05 11:01:04 51°9.279 2°36.272 -999 -999 -999  
2001-06-05 11:01:07 51°9.28 2°36.274 -999 -999 -999  
2001-06-05 11:01:13 51°9.28 2°36.278 -999 -999 -999  
2001-06-05 11:01:18 51°9.281 2°36.281 -999 -999 -999  
2001-06-05 11:01:23 51°9.282 2°36.285 -999 -999 -999  
2001-06-05 11:01:28 51°9.283 2°36.288 -999 -999 -999  
2001-06-05 11:01:34 51°9.284 2°36.292 -999 -999 -999  
2001-06-05 11:01:38 51°9.285 2°36.295 -999 -999 -999  
2001-06-05 11:01:43 51°9.285 2°36.299 -999 -999 -999  
2001-06-05 11:01:48 51°9.286 2°36.302 -999 -999 -999  
2001-06-05 11:01:53 51°9.287 2°36.306 -999 -999 -999  
2001-06-05 11:01:58 51°9.288 2°36.309 -999 -999 -999  
2001-06-05 11:02:03 51°9.289 2°36.312 -999 -999 -999  
2001-06-05 11:02:07 51°9.289 2°36.315 -999 -999 -999  
2001-06-05 11:02:13 51°9.29 2°36.319 -999 -999 -999  
2001-06-05 11:02:18 51°9.291 2°36.323 -999 -999 -999  
2001-06-05 11:02:23 51°9.292 2°36.326 -999 -999 -999  
2001-06-05 11:02:28 51°9.292 2°36.33 -999 -999 -999  
2001-06-05 11:02:33 51°9.293 2°36.333 -999 -999 -999  
2001-06-05 11:02:38 51°9.294 2°36.337 -999 -999 -999  
2001-06-05 11:02:43 51°9.295 2°36.34 -999 -999 -999  
2001-06-05 11:02:48 51°9.296 2°36.344 -999 -999 -999  
2001-06-05 11:02:53 51°9.296 2°36.347 -999 -999 -999  
2001-06-05 11:02:58 51°9.297 2°36.351 -999 -999 -999  
2001-06-05 11:03:03 51°9.298 2°36.354 -999 -999 -999  
2001-06-05 11:03:08 51°9.299 2°36.357 -999 -999 -999  
2001-06-05 11:03:13 51°9.299 2°36.361 -999 -999 -999  
2001-06-05 11:03:18 51°9.3 2°36.364 -999 -999 -999  
2001-06-05 11:03:24 51°9.301 2°36.368 -999 -999 -999  
2001-06-05 11:03:27 51°9.301 2°36.371 -999 -999 -999  
2001-06-05 11:03:33 51°9.302 2°36.375 -999 -999 -999  
2001-06-05 11:03:38 51°9.303 2°36.378 -999 -999 -999  
2001-06-05 11:03:43 51°9.304 2°36.382 -999 -999 -999  
2001-06-05 11:03:48 51°9.305 2°36.385 -999 -999 -999  
2001-06-05 11:03:54 51°9.305 2°36.389 -999 -999 -999  
2001-06-05 11:03:58 51°9.306 2°36.392 -999 -999 -999  
2001-06-05 11:04:03 51°9.307 2°36.395 -999 -999 -999  
2001-06-05 11:04:08 51°9.308 2°36.399 -999 -999 -999  
2001-06-05 11:04:13 51°9.308 2°36.402 -999 -999 -999  
2001-06-05 11:04:18 51°9.309 2°36.406 -999 -999 -999  
2001-06-05 11:04:23 51°9.31 2°36.409 -999 -999 -999  
2001-06-05 11:04:28 51°9.311 2°36.413 -999 -999 -999  
2001-06-05 11:04:33 51°9.311 2°36.416 -999 -999 -999  
2001-06-05 11:04:38 51°9.312 2°36.42 -999 -999 -999  
2001-06-05 11:04:43 51°9.313 2°36.423 -999 -999 -999  
2001-06-05 11:04:47 51°9.314 2°36.426 -999 -999 -999  
2001-06-05 11:04:53 51°9.315 2°36.43 -999 -999 -999  
2001-06-05 11:04:58 51°9.315 2°36.434 -999 -999 -999  
2001-06-05 11:05:03 51°9.316 2°36.438 -999 -999 -999  
2001-06-05 11:05:08 51°9.317 2°36.441 -999 -999 -999  
2001-06-05 11:05:13 51°9.318 2°36.444 -999 -999 -999  
2001-06-05 11:05:17 51°9.318 2°36.447 -999 -999 -999  
2001-06-05 11:05:23 51°9.319 2°36.452 -999 -999 -999  
2001-06-05 11:05:28 51°9.32 2°36.455 -999 -999 -999  
2001-06-05 11:05:33 51°9.321 2°36.458 -999 -999 -999  
2001-06-05 11:05:39 51°9.322 2°36.463 -999 -999 -999  
2001-06-05 11:05:43 51°9.322 2°36.466 -999 -999 -999  
2001-06-05 11:05:48 51°9.323 2°36.469 -999 -999 -999  
2001-06-05 11:05:53 51°9.324 2°36.473 -999 -999 -999  
2001-06-05 11:05:58 51°9.325 2°36.476 -999 -999 -999  
2001-06-05 11:06:04 51°9.326 2°36.48 -999 -999 -999  
2001-06-05 11:06:07 51°9.326 2°36.483 -999 -999 -999  
2001-06-05 11:06:13 51°9.327 2°36.487 -999 -999 -999  
2001-06-05 11:06:18 51°9.328 2°36.49 -999 -999 -999  
2001-06-05 11:06:23 51°9.328 2°36.494 -999 -999 -999  
2001-06-05 11:06:28 51°9.329 2°36.497 -999 -999 -999  
2001-06-05 11:06:34 51°9.33 2°36.502 -999 -999 -999  
2001-06-05 11:06:38 51°9.331 2°36.504 -999 -999 -999  
2001-06-05 11:06:43 51°9.331 2°36.508 -999 -999 -999  
2001-06-05 11:06:49 51°9.332 2°36.512 -999 -999 -999  
2001-06-05 11:06:53 51°9.333 2°36.515 -999 -999 -999  
2001-06-05 11:06:58 51°9.334 2°36.519 -999 -999 -999  
2001-06-05 11:07:03 51°9.334 2°36.522 -999 -999 -999  
2001-06-05 11:07:08 51°9.335 2°36.526 -999 -999 -999  
2001-06-05 11:07:13 51°9.336 2°36.529 -999 -999 -999  
2001-06-05 11:07:19 51°9.337 2°36.534 -999 -999 -999  
2001-06-05 11:07:23 51°9.337 2°36.536 -999 -999 -999  
2001-06-05 11:07:27 51°9.338 2°36.539 -999 -999 -999  
2001-06-05 11:07:33 51°9.339 2°36.544 -999 -999 -999  
2001-06-05 11:07:38 51°9.34 2°36.547 -999 -999 -999  
2001-06-05 11:07:43 51°9.341 2°36.551 -999 -999 -999  
2001-06-05 11:07:48 51°9.342 2°36.555 -999 -999 -999  
2001-06-05 11:07:53 51°9.343 2°36.558 -999 -999 -999  
2001-06-05 11:07:58 51°9.343 2°36.562 -999 -999 -999  
2001-06-05 11:08:03 51°9.344 2°36.566 -999 -999 -999  
2001-06-05 11:08:07 51°9.344 2°36.569 -999 -999 -999  
2001-06-05 11:08:13 51°9.345 2°36.573 -999 -999 -999  
2001-06-05 11:08:18 51°9.346 2°36.577 -999 -999 -999  
2001-06-05 11:08:23 51°9.347 2°36.58 -999 -999 -999  
2001-06-05 11:08:28 51°9.347 2°36.584 -999 -999 -999  
2001-06-05 11:08:34 51°9.348 2°36.588 -999 -999 -999  
2001-06-05 11:08:38 51°9.349 2°36.591 -999 -999 -999  
2001-06-05 11:08:43 51°9.35 2°36.595 -999 -999 -999  
2001-06-05 11:08:48 51°9.35 2°36.598 -999 -999 -999  
2001-06-05 11:08:53 51°9.351 2°36.602 -999 -999 -999  
2001-06-05 11:08:58 51°9.352 2°36.606 -999 -999 -999  
2001-06-05 11:09:03 51°9.353 2°36.609 -999 -999 -999  
2001-06-05 11:09:08 51°9.353 2°36.613 -999 -999 -999  
2001-06-05 11:09:13 51°9.354 2°36.617 -999 -999 -999  
2001-06-05 11:09:18 51°9.355 2°36.62 -999 -999 -999  
2001-06-05 11:09:23 51°9.356 2°36.624 -999 -999 -999  
2001-06-05 11:09:27 51°9.357 2°36.627 -999 -999 -999  
2001-06-05 11:09:33 51°9.358 2°36.631 -999 -999 -999  
2001-06-05 11:09:38 51°9.358 2°36.635 -999 -999 -999  
2001-06-05 11:09:43 51°9.359 2°36.639 -999 -999 -999  
2001-06-05 11:09:48 51°9.36 2°36.642 -999 -999 -999  
2001-06-05 11:09:53 51°9.361 2°36.646 -999 -999 -999  
2001-06-05 11:09:57 51°9.362 2°36.649 -999 -999 -999  
2001-06-05 11:10:03 51°9.362 2°36.653 -999 -999 -999  
2001-06-05 11:10:08 51°9.363 2°36.657 -999 -999 -999  
2001-06-05 11:10:13 51°9.364 2°36.66 -999 -999 -999  
2001-06-05 11:10:19 51°9.365 2°36.665 -999 -999 -999  
2001-06-05 11:10:23 51°9.366 2°36.668 -999 -999 -999  
2001-06-05 11:10:28 51°9.367 2°36.671 -999 -999 -999  
2001-06-05 11:10:33 51°9.367 2°36.675 -999 -999 -999  
2001-06-05 11:10:38 51°9.368 2°36.679 -999 -999 -999  
2001-06-05 11:10:43 51°9.369 2°36.682 -999 -999 -999  
2001-06-05 11:10:49 51°9.37 2°36.687 -999 -999 -999  
2001-06-05 11:10:54 51°9.371 2°36.69 -999 -999 -999  
2001-06-05 11:10:58 51°9.371 2°36.693 -999 -999 -999  
2001-06-05 11:11:03 51°9.372 2°36.697 -999 -999 -999  
2001-06-05 11:11:08 51°9.373 2°36.7 -999 -999 -999  
2001-06-05 11:11:13 51°9.374 2°36.704 -999 -999 -999  
2001-06-05 11:11:18 51°9.375 2°36.708 -999 -999 -999  
2001-06-05 11:11:23 51°9.376 2°36.711 -999 -999 -999  
2001-06-05 11:11:28 51°9.376 2°36.715 -999 -999 -999  
2001-06-05 11:11:33 51°9.377 2°36.718 -999 -999 -999  
2001-06-05 11:11:38 51°9.378 2°36.722 -999 -999 -999  
2001-06-05 11:11:43 51°9.379 2°36.726 -999 -999 -999  
2001-06-05 11:11:48 51°9.38 2°36.73 -999 -999 -999  
2001-06-05 11:11:53 51°9.38 2°36.733 -999 -999 -999  
2001-06-05 11:11:58 51°9.381 2°36.737 -999 -999 -999  
2001-06-05 11:12:03 51°9.382 2°36.741 -999 -999 -999  
2001-06-05 11:12:08 51°9.383 2°36.744 -999 -999 -999  
2001-06-05 11:12:13 51°9.384 2°36.748 -999 -999 -999  
2001-06-05 11:12:18 51°9.384 2°36.752 -999 -999 -999  
2001-06-05 11:12:23 51°9.385 2°36.756 -999 -999 -999  
2001-06-05 11:12:27 51°9.386 2°36.759 -999 -999 -999  
2001-06-05 11:12:33 51°9.386 2°36.763 -999 -999 -999  
2001-06-05 11:12:39 51°9.387 2°36.768 -999 -999 -999  
2001-06-05 11:12:43 51°9.388 2°36.771 -999 -999 -999  
2001-06-05 11:12:48 51°9.389 2°36.774 -999 -999 -999  
2001-06-05 11:12:53 51°9.389 2°36.778 -999 -999 -999  
2001-06-05 11:12:58 51°9.39 2°36.782 -999 -999 -999  
2001-06-05 11:13:03 51°9.391 2°36.786 -999 -999 -999  
2001-06-05 11:13:09 51°9.392 2°36.79 -999 -999 -999  
2001-06-05 11:13:14 51°9.392 2°36.794 -999 -999 -999  
2001-06-05 11:13:18 51°9.393 2°36.797 -999 -999 -999  
2001-06-05 11:13:23 51°9.394 2°36.801 -999 -999 -999  
2001-06-05 11:13:28 51°9.394 2°36.804 -999 -999 -999  
2001-06-05 11:13:33 51°9.395 2°36.808 -999 -999 -999  
2001-06-05 11:13:38 51°9.396 2°36.812 -999 -999 -999  
2001-06-05 11:13:44 51°9.397 2°36.817 -999 -999 -999  
2001-06-05 11:13:49 51°9.398 2°36.82 -999 -999 -999  
2001-06-05 11:13:53 51°9.399 2°36.823 -999 -999 -999  
2001-06-05 11:13:58 51°9.399 2°36.827 -999 -999 -999  
2001-06-05 11:14:03 51°9.4 2°36.831 -999 -999 -999  
2001-06-05 11:14:08 51°9.401 2°36.834 -999 -999 -999  
2001-06-05 11:14:14 51°9.402 2°36.839 -999 -999 -999  
2001-06-05 11:14:18 51°9.402 2°36.842 -999 -999 -999  
2001-06-05 11:14:24 51°9.403 2°36.847 -999 -999 -999  
2001-06-05 11:14:28 51°9.404 2°36.85 -999 -999 -999  
2001-06-05 11:14:33 51°9.405 2°36.854 -999 -999 -999  
2001-06-05 11:14:38 51°9.405 2°36.857 -999 -999 -999  
2001-06-05 11:14:43 51°9.406 2°36.861 -999 -999 -999  
2001-06-05 11:14:48 51°9.407 2°36.865 -999 -999 -999  
2001-06-05 11:14:53 51°9.408 2°36.868 -999 -999 -999  
2001-06-05 11:14:58 51°9.408 2°36.872 -999 -999 -999  
2001-06-05 11:15:03 51°9.409 2°36.876 -999 -999 -999  
2001-06-05 11:15:07 51°9.41 2°36.879 -999 -999 -999  
2001-06-05 11:15:13 51°9.411 2°36.883 -999 -999 -999  
2001-06-05 11:15:18 51°9.412 2°36.887 -999 -999 -999  
2001-06-05 11:15:23 51°9.412 2°36.891 -999 -999 -999  
2001-06-05 11:15:29 51°9.413 2°36.895 -999 -999 -999  
2001-06-05 11:15:33 51°9.414 2°36.897 -999 -999 -999  
2001-06-05 11:15:37 51°9.414 2°36.898 -999 -999 -999  
2001-06-05 11:15:43 51°9.415 2°36.898 -999 -999 -999  
2001-06-05 11:15:48 51°9.415 2°36.896 -999 -999 -999  
2001-06-05 11:15:53 51°9.416 2°36.892 -999 -999 -999  
2001-06-05 11:15:59 51°9.418 2°36.887 -999 -999 -999  
2001-06-05 11:16:03 51°9.419 2°36.882 -999 -999 -999  
2001-06-05 11:16:08 51°9.423 2°36.875 -999 -999 -999  
2001-06-05 11:16:13 51°9.428 2°36.868 -999 -999 -999  
2001-06-05 11:16:18 51°9.434 2°36.86 -999 -999 -999  
2001-06-05 11:16:23 51°9.443 2°36.852 -999 -999 -999  
2001-06-05 11:16:28 51°9.453 2°36.845 -999 -999 -999  
2001-06-05 11:16:34 51°9.467 2°36.838 -999 -999 -999  
2001-06-05 11:16:38 51°9.477 2°36.836 -999 -999 -999  
2001-06-05 11:16:44 51°9.495 2°36.835 -999 -999 -999  
2001-06-05 11:16:48 51°9.507 2°36.837 -999 -999 -999  
2001-06-05 11:16:53 51°9.523 2°36.843 -999 -999 -999  
2001-06-05 11:16:58 51°9.538 2°36.852 -999 -999 -999  
2001-06-05 11:17:03 51°9.553 2°36.864 -999 -999 -999  
2001-06-05 11:17:08 51°9.568 2°36.88 -999 -999 -999  
2001-06-05 11:17:13 51°9.582 2°36.899 -999 -999 -999  
2001-06-05 11:17:19 51°9.597 2°36.925 -999 -999 -999  
2001-06-05 11:17:23 51°9.607 2°36.943 -999 -999 -999  
2001-06-05 11:17:28 51°9.618 2°36.968 -999 -999 -999  
2001-06-05 11:17:33 51°9.63 2°36.994 -999 -999 -999  
2001-06-05 11:17:38 51°9.641 2°37.02 -999 -999 -999  
2001-06-05 11:17:43 51°9.652 2°37.047 -999 -999 -999  
2001-06-05 11:17:49 51°9.665 2°37.08 -999 -999 -999  
2001-06-05 11:17:53 51°9.674 2°37.102 -999 -999 -999  
2001-06-05 11:17:58 51°9.686 2°37.128 -999 -999 -999  
2001-06-05 11:18:03 51°9.698 2°37.155 -999 -999 -999  
2001-06-05 11:18:07 51°9.707 2°37.177 -999 -999 -999  
2001-06-05 11:18:13 51°9.721 2°37.209 -999 -999 -999  
2001-06-05 11:18:19 51°9.734 2°37.243 -999 -999 -999  
2001-06-05 11:18:23 51°9.743 2°37.265 -999 -999 -999  
2001-06-05 11:18:28 51°9.753 2°37.293 -999 -999 -999  
2001-06-05 11:18:33 51°9.762 2°37.322 -999 -999 -999  
2001-06-05 11:18:38 51°9.772 2°37.352 -999 -999 -999  
2001-06-05 11:18:43 51°9.781 2°37.381 -999 -999 -999  
2001-06-05 11:18:48 51°9.79 2°37.41 -999 -999 -999  
2001-06-05 11:18:54 51°9.801 2°37.446 -999 -999 -999  
2001-06-05 11:18:59 51°9.81 2°37.476 -999 -999 -999  
2001-06-05 11:19:03 51°9.817 2°37.499 -999 -999 -999  
2001-06-05 11:19:08 51°9.826 2°37.529 -999 -999 -999  
2001-06-05 11:19:13 51°9.835 2°37.559 -999 -999 -999  
2001-06-05 11:19:18 51°9.844 2°37.588 -999 -999 -999  
2001-06-05 11:19:24 51°9.855 2°37.624 -999 -999 -999  
2001-06-05 11:19:27 51°9.861 2°37.641 -999 -999 -999  
2001-06-05 11:19:34 51°9.874 2°37.682 -999 -999 -999  
2001-06-05 11:19:38 51°9.881 2°37.705 -999 -999 -999  
2001-06-05 11:19:43 51°9.891 2°37.734 -999 -999 -999  
2001-06-05 11:19:48 51°9.901 2°37.763 -999 -999 -999  
2001-06-05 11:19:53 51°9.91 2°37.792 -999 -999 -999  
2001-06-05 11:19:58 51°9.92 2°37.821 -999 -999 -999  
2001-06-05 11:20:03 51°9.93 2°37.851 -999 -999 -999  
2001-06-05 11:20:09 51°9.941 2°37.886 -999 -999 -999  
2001-06-05 11:20:13 51°9.947 2°37.909 -999 -999 -999  
2001-06-05 11:20:18 51°9.955 2°37.94 -999 -999 -999  
2001-06-05 11:20:23 51°9.962 2°37.97 -999 -999 -999  
2001-06-05 11:20:28 51°9.969 2°38.001 -999 -999 -999  
2001-06-05 11:20:33 51°9.977 2°38.032 -999 -999 -999  
2001-06-05 11:20:38 51°9.984 2°38.063 -999 -999 -999  
2001-06-05 11:20:44 51°9.992 2°38.101 -999 -999 -999  
2001-06-05 11:20:47 51°9.997 2°38.119 -999 -999 -999  
2001-06-05 11:20:53 51°10.006 2°38.156 -999 -999 -999  
2001-06-05 11:20:58 51°10.014 2°38.187 -999 -999 -999  
2001-06-05 11:21:03 51°10.022 2°38.217 -999 -999 -999  
2001-06-05 11:21:09 51°10.033 2°38.253 -999 -999 -999  
2001-06-05 11:21:14 51°10.041 2°38.283 -999 -999 -999  
2001-06-05 11:21:19 51°10.05 2°38.314 -999 -999 -999  
2001-06-05 11:21:23 51°10.056 2°38.338 -999 -999 -999  
2001-06-05 11:21:28 51°10.064 2°38.369 -999 -999 -999  
2001-06-05 11:21:33 51°10.072 2°38.399 -999 -999 -999  
2001-06-05 11:21:38 51°10.08 2°38.43 -999 -999 -999  
2001-06-05 11:21:43 51°10.088 2°38.46 -999 -999 -999  
2001-06-05 11:21:48 51°10.096 2°38.491 -999 -999 -999  
2001-06-05 11:21:54 51°10.105 2°38.528 -999 -999 -999  
2001-06-05 11:21:58 51°10.111 2°38.553 -999 -999 -999  
2001-06-05 11:22:03 51°10.118 2°38.584 -999 -999 -999  
2001-06-05 11:22:08 51°10.125 2°38.616 -999 -999 -999  
2001-06-05 11:22:13 51°10.13 2°38.647 -999 -999 -999  
2001-06-05 11:22:18 51°10.136 2°38.679 -999 -999 -999  
2001-06-05 11:22:24 51°10.143 2°38.718 -999 -999 -999  
2001-06-05 11:22:28 51°10.147 2°38.744 -999 -999 -999  
2001-06-05 11:22:34 51°10.154 2°38.782 -999 -999 -999  
2001-06-05 11:22:38 51°10.158 2°38.808 -999 -999 -999  
2001-06-05 11:22:43 51°10.165 2°38.839 -999 -999 -999  
2001-06-05 11:22:48 51°10.171 2°38.871 -999 -999 -999  
2001-06-05 11:22:53 51°10.177 2°38.903 -999 -999 -999  
2001-06-05 11:22:59 51°10.185 2°38.941 -999 -999 -999  
2001-06-05 11:23:03 51°10.189 2°38.967 -999 -999 -999  
2001-06-05 11:23:08 51°10.196 2°38.999 -999 -999 -999  
2001-06-05 11:23:13 51°10.202 2°39.03 -999 -999 -999  
2001-06-05 11:23:18 51°10.209 2°39.062 -999 -999 -999